Bagdad, Arizona
Current Conditions -  °F | °C
As of 7:53 PM on Saturday 25 Oct 2014 (Local Time) from KPRC Reporting Station
Clear Clear  
Wind Chill: 63°   Ceiling: Unl
Heat Index: 63°   Visibility: 10mi
Dew Point: 44°   Wind: 8mph
Humidity: 50%   Direction: 200°SSW
Pressure: 30.16"   Gusts: NA
Location:  34.58°N, 113.17°W
Report Text: KPRC 260253Z AUTO 20007KT 10SM CLR 17/07 A3016 RMK AO2 SLP158 T01720067 56003 TSNO
Loading
Personal Weather Stations






























Interactive Weather Map
Tropical Storm Tracking
New forecast layout! Learn more

10-Day Weather Forecast

Advertisements
Track Severe Weather on mobile